sensor_id;sensor_type;location;lat;lon;timestamp;temperature;humidity
37052;DHT22;22964;52.272;13.356;2023-12-20T00:01:23;10.60;80.90
37052;DHT22;22964;52.272;13.356;2023-12-20T00:03:48;10.50;80.20
37052;DHT22;22964;52.272;13.356;2023-12-20T00:06:15;10.60;80.30
37052;DHT22;22964;52.272;13.356;2023-12-20T00:08:41;10.50;80.20
37052;DHT22;22964;52.272;13.356;2023-12-20T00:11:06;10.50;80.10
37052;DHT22;22964;52.272;13.356;2023-12-20T00:13:32;10.50;80.20
37052;DHT22;22964;52.272;13.356;2023-12-20T00:15:58;10.50;80.20
37052;DHT22;22964;52.272;13.356;2023-12-20T00:18:23;10.60;80.20
37052;DHT22;22964;52.272;13.356;2023-12-20T00:20:49;10.50;80.10
37052;DHT22;22964;52.272;13.356;2023-12-20T00:23:15;10.50;80.20
37052;DHT22;22964;52.272;13.356;2023-12-20T00:25:41;10.50;80.20
37052;DHT22;22964;52.272;13.356;2023-12-20T00:28:06;10.50;80.20
37052;DHT22;22964;52.272;13.356;2023-12-20T00:30:32;10.50;81.20
37052;DHT22;22964;52.272;13.356;2023-12-20T00:32:58;10.50;80.30
37052;DHT22;22964;52.272;13.356;2023-12-20T00:35:23;10.50;80.30
37052;DHT22;22964;52.272;13.356;2023-12-20T00:37:49;10.50;80.30
37052;DHT22;22964;52.272;13.356;2023-12-20T00:40:15;10.50;80.30
37052;DHT22;22964;52.272;13.356;2023-12-20T00:42:41;10.50;80.30
37052;DHT22;22964;52.272;13.356;2023-12-20T00:45:07;10.60;80.30
37052;DHT22;22964;52.272;13.356;2023-12-20T00:47:33;10.50;80.40
37052;DHT22;22964;52.272;13.356;2023-12-20T00:49:58;10.50;80.50
37052;DHT22;22964;52.272;13.356;2023-12-20T00:52:24;10.50;80.40
37052;DHT22;22964;52.272;13.356;2023-12-20T00:54:51;10.50;80.40
37052;DHT22;22964;52.272;13.356;2023-12-20T00:57:17;10.50;80.40
37052;DHT22;22964;52.272;13.356;2023-12-20T00:59:42;10.50;80.40
37052;DHT22;22964;52.272;13.356;2023-12-20T01:02:08;10.50;80.50
37052;DHT22;22964;52.272;13.356;2023-12-20T01:04:35;10.50;80.50
37052;DHT22;22964;52.272;13.356;2023-12-20T01:07:01;10.50;80.50
37052;DHT22;22964;52.272;13.356;2023-12-20T01:09:27;10.50;80.50
37052;DHT22;22964;52.272;13.356;2023-12-20T01:11:53;10.60;80.70
37052;DHT22;22964;52.272;13.356;2023-12-20T01:14:19;10.50;81.10
37052;DHT22;22964;52.272;13.356;2023-12-20T01:16:44;10.50;80.60
37052;DHT22;22964;52.272;13.356;2023-12-20T01:19:10;10.50;80.60
37052;DHT22;22964;52.272;13.356;2023-12-20T01:21:36;10.60;80.80
37052;DHT22;22964;52.272;13.356;2023-12-20T01:24:02;10.50;80.80
37052;DHT22;22964;52.272;13.356;2023-12-20T01:26:27;10.60;80.80
37052;DHT22;22964;52.272;13.356;2023-12-20T01:28:53;10.50;80.60
37052;DHT22;22964;52.272;13.356;2023-12-20T01:31:19;10.60;80.80
37052;DHT22;22964;52.272;13.356;2023-12-20T01:33:44;10.60;80.80
37052;DHT22;22964;52.272;13.356;2023-12-20T01:36:10;10.50;80.70
37052;DHT22;22964;52.272;13.356;2023-12-20T01:38:37;10.60;80.80
37052;DHT22;22964;52.272;13.356;2023-12-20T01:41:03;10.50;80.70
37052;DHT22;22964;52.272;13.356;2023-12-20T01:43:29;10.60;80.80
37052;DHT22;22964;52.272;13.356;2023-12-20T01:45:56;10.50;80.70
37052;DHT22;22964;52.272;13.356;2023-12-20T01:48:23;10.60;80.90
37052;DHT22;22964;52.272;13.356;2023-12-20T01:50:49;10.50;80.80
37052;DHT22;22964;52.272;13.356;2023-12-20T01:53:16;10.50;80.70
37052;DHT22;22964;52.272;13.356;2023-12-20T01:55:42;10.50;80.90
37052;DHT22;22964;52.272;13.356;2023-12-20T01:58:09;10.50;80.90
37052;DHT22;22964;52.272;13.356;2023-12-20T02:00:36;10.50;80.80
37052;DHT22;22964;52.272;13.356;2023-12-20T02:03:03;10.60;80.90
37052;DHT22;22964;52.272;13.356;2023-12-20T02:05:34;10.50;81.00
37052;DHT22;22964;52.272;13.356;2023-12-20T02:08:00;10.50;80.90
37052;DHT22;22964;52.272;13.356;2023-12-20T02:10:26;10.50;80.90
37052;DHT22;22964;52.272;13.356;2023-12-20T02:12:52;10.50;80.80
37052;DHT22;22964;52.272;13.356;2023-12-20T02:15:18;10.60;80.90
37052;DHT22;22964;52.272;13.356;2023-12-20T02:17:45;10.60;80.90
37052;DHT22;22964;52.272;13.356;2023-12-20T02:20:12;10.60;80.90
37052;DHT22;22964;52.272;13.356;2023-12-20T02:22:37;10.60;80.90
37052;DHT22;22964;52.272;13.356;2023-12-20T02:25:03;10.60;81.10
37052;DHT22;22964;52.272;13.356;2023-12-20T02:27:29;10.60;81.00
37052;DHT22;22964;52.272;13.356;2023-12-20T02:29:55;10.60;81.20
37052;DHT22;22964;52.272;13.356;2023-12-20T02:32:21;10.60;81.20
37052;DHT22;22964;52.272;13.356;2023-12-20T02:34:48;10.50;81.10
37052;DHT22;22964;52.272;13.356;2023-12-20T02:37:14;10.60;81.30
37052;DHT22;22964;52.272;13.356;2023-12-20T02:39:40;10.60;82.20
37052;DHT22;22964;52.272;13.356;2023-12-20T02:42:05;10.60;81.20
37052;DHT22;22964;52.272;13.356;2023-12-20T02:44:31;10.60;81.40
37052;DHT22;22964;52.272;13.356;2023-12-20T02:46:57;10.60;81.30
37052;DHT22;22964;52.272;13.356;2023-12-20T02:49:23;10.60;81.30
37052;DHT22;22964;52.272;13.356;2023-12-20T02:51:48;10.60;81.40
37052;DHT22;22964;52.272;13.356;2023-12-20T02:54:14;10.60;81.50
37052;DHT22;22964;52.272;13.356;2023-12-20T02:56:40;10.60;81.40
37052;DHT22;22964;52.272;13.356;2023-12-20T02:59:05;10.70;81.50
37052;DHT22;22964;52.272;13.356;2023-12-20T03:01:33;10.60;81.40
37052;DHT22;22964;52.272;13.356;2023-12-20T03:04:00;10.70;81.50
37052;DHT22;22964;52.272;13.356;2023-12-20T03:06:25;10.70;81.50
37052;DHT22;22964;52.272;13.356;2023-12-20T03:08:51;10.70;81.50
37052;DHT22;22964;52.272;13.356;2023-12-20T03:11:17;10.70;81.40
37052;DHT22;22964;52.272;13.356;2023-12-20T03:13:43;10.70;81.40
37052;DHT22;22964;52.272;13.356;2023-12-20T03:16:10;10.70;81.40
37052;DHT22;22964;52.272;13.356;2023-12-20T03:18:35;10.70;81.40
37052;DHT22;22964;52.272;13.356;2023-12-20T03:21:01;10.70;81.50
37052;DHT22;22964;52.272;13.356;2023-12-20T03:23:27;10.80;81.50
37052;DHT22;22964;52.272;13.356;2023-12-20T03:25:53;10.80;81.50
37052;DHT22;22964;52.272;13.356;2023-12-20T03:28:18;10.80;81.50
37052;DHT22;22964;52.272;13.356;2023-12-20T03:30:45;10.80;81.40
37052;DHT22;22964;52.272;13.356;2023-12-20T03:33:10;10.80;81.40
37052;DHT22;22964;52.272;13.356;2023-12-20T03:35:36;10.80;81.40
37052;DHT22;22964;52.272;13.356;2023-12-20T03:38:02;10.80;81.30
37052;DHT22;22964;52.272;13.356;2023-12-20T03:40:28;10.80;81.40
37052;DHT22;22964;52.272;13.356;2023-12-20T03:42:54;10.80;81.30
37052;DHT22;22964;52.272;13.356;2023-12-20T03:45:19;10.80;81.40
37052;DHT22;22964;52.272;13.356;2023-12-20T03:47:45;10.80;81.30
37052;DHT22;22964;52.272;13.356;2023-12-20T03:50:11;10.90;81.30
37052;DHT22;22964;52.272;13.356;2023-12-20T03:52:36;10.80;81.30
37052;DHT22;22964;52.272;13.356;2023-12-20T03:55:02;10.90;81.30
37052;DHT22;22964;52.272;13.356;2023-12-20T03:57:28;10.90;81.30
37052;DHT22;22964;52.272;13.356;2023-12-20T03:59:54;10.90;81.30
37052;DHT22;22964;52.272;13.356;2023-12-20T04:02:19;11.00;81.20
37052;DHT22;22964;52.272;13.356;2023-12-20T04:04:45;10.90;81.10
37052;DHT22;22964;52.272;13.356;2023-12-20T04:07:11;10.90;81.00
37052;DHT22;22964;52.272;13.356;2023-12-20T04:09:36;10.90;81.10
37052;DHT22;22964;52.272;13.356;2023-12-20T04:12:03;10.90;81.00
37052;DHT22;22964;52.272;13.356;2023-12-20T04:14:29;11.00;81.00
37052;DHT22;22964;52.272;13.356;2023-12-20T04:16:54;11.00;81.00
37052;DHT22;22964;52.272;13.356;2023-12-20T04:19:20;11.00;81.00
37052;DHT22;22964;52.272;13.356;2023-12-20T04:21:46;11.00;81.00
37052;DHT22;22964;52.272;13.356;2023-12-20T04:24:11;11.00;80.90
37052;DHT22;22964;52.272;13.356;2023-12-20T04:26:37;11.00;80.80
37052;DHT22;22964;52.272;13.356;2023-12-20T04:29:03;11.00;80.70
37052;DHT22;22964;52.272;13.356;2023-12-20T04:31:28;11.00;80.60
37052;DHT22;22964;52.272;13.356;2023-12-20T04:33:54;11.00;80.60
37052;DHT22;22964;52.272;13.356;2023-12-20T04:36:20;10.90;80.30
37052;DHT22;22964;52.272;13.356;2023-12-20T04:38:45;10.90;80.20
37052;DHT22;22964;52.272;13.356;2023-12-20T04:41:11;10.90;80.20
37052;DHT22;22964;52.272;13.356;2023-12-20T04:43:41;10.90;80.20
37052;DHT22;22964;52.272;13.356;2023-12-20T04:46:07;10.90;80.20
37052;DHT22;22964;52.272;13.356;2023-12-20T04:48:32;10.90;80.20
37052;DHT22;22964;52.272;13.356;2023-12-20T04:50:58;10.80;80.00
37052;DHT22;22964;52.272;13.356;2023-12-20T04:53:24;10.80;80.00
37052;DHT22;22964;52.272;13.356;2023-12-20T04:55:50;10.80;80.00
37052;DHT22;22964;52.272;13.356;2023-12-20T04:58:15;10.80;80.00
37052;DHT22;22964;52.272;13.356;2023-12-20T05:00:41;10.80;80.00
37052;DHT22;22964;52.272;13.356;2023-12-20T05:03:07;10.80;79.90
37052;DHT22;22964;52.272;13.356;2023-12-20T05:05:33;10.80;79.70
37052;DHT22;22964;52.272;13.356;2023-12-20T05:07:59;10.80;79.60
37052;DHT22;22964;52.272;13.356;2023-12-20T05:10:24;10.70;79.50
37052;DHT22;22964;52.272;13.356;2023-12-20T05:12:51;10.70;79.30
37052;DHT22;22964;52.272;13.356;2023-12-20T05:15:17;10.60;79.20
37052;DHT22;22964;52.272;13.356;2023-12-20T05:17:43;10.60;79.10
37052;DHT22;22964;52.272;13.356;2023-12-20T05:20:08;10.60;79.10
37052;DHT22;22964;52.272;13.356;2023-12-20T05:22:34;10.50;78.90
37052;DHT22;22964;52.272;13.356;2023-12-20T05:25:00;10.50;78.90
37052;DHT22;22964;52.272;13.356;2023-12-20T05:27:25;10.50;78.80
37052;DHT22;22964;52.272;13.356;2023-12-20T05:29:51;10.40;78.80
37052;DHT22;22964;52.272;13.356;2023-12-20T05:32:17;10.40;78.90
37052;DHT22;22964;52.272;13.356;2023-12-20T05:34:42;10.30;79.00
37052;DHT22;22964;52.272;13.356;2023-12-20T05:37:08;10.30;79.20
37052;DHT22;22964;52.272;13.356;2023-12-20T05:39:34;10.30;79.40
37052;DHT22;22964;52.272;13.356;2023-12-20T05:42:00;10.30;79.50
37052;DHT22;22964;52.272;13.356;2023-12-20T05:44:26;10.30;79.60
37052;DHT22;22964;52.272;13.356;2023-12-20T05:46:52;10.30;79.70
37052;DHT22;22964;52.272;13.356;2023-12-20T05:49:17;10.30;79.70
37052;DHT22;22964;52.272;13.356;2023-12-20T05:51:43;10.30;79.70
37052;DHT22;22964;52.272;13.356;2023-12-20T05:54:09;10.30;79.70
37052;DHT22;22964;52.272;13.356;2023-12-20T05:56:35;10.30;79.70
37052;DHT22;22964;52.272;13.356;2023-12-20T05:59:00;10.30;79.80
37052;DHT22;22964;52.272;13.356;2023-12-20T06:01:26;10.30;79.80
37052;DHT22;22964;52.272;13.356;2023-12-20T06:03:52;10.30;79.80
37052;DHT22;22964;52.272;13.356;2023-12-20T06:06:17;10.30;79.80
37052;DHT22;22964;52.272;13.356;2023-12-20T06:08:43;10.30;79.70
37052;DHT22;22964;52.272;13.356;2023-12-20T06:11:09;10.30;79.70
37052;DHT22;22964;52.272;13.356;2023-12-20T06:13:35;10.20;79.60
37052;DHT22;22964;52.272;13.356;2023-12-20T06:16:01;10.20;79.60
37052;DHT22;22964;52.272;13.356;2023-12-20T06:18:26;10.20;79.40
37052;DHT22;22964;52.272;13.356;2023-12-20T06:20:52;10.20;79.40
37052;DHT22;22964;52.272;13.356;2023-12-20T06:23:18;10.20;79.30
37052;DHT22;22964;52.272;13.356;2023-12-20T06:25:44;10.20;79.20
37052;DHT22;22964;52.272;13.356;2023-12-20T06:28:09;10.10;79.10
37052;DHT22;22964;52.272;13.356;2023-12-20T06:30:36;10.10;79.00
37052;DHT22;22964;52.272;13.356;2023-12-20T06:33:01;10.10;79.00
37052;DHT22;22964;52.272;13.356;2023-12-20T06:35:27;10.00;79.00
37052;DHT22;22964;52.272;13.356;2023-12-20T06:37:53;10.00;79.00
37052;DHT22;22964;52.272;13.356;2023-12-20T06:40:19;10.00;79.00
37052;DHT22;22964;52.272;13.356;2023-12-20T06:42:46;10.00;79.00
37052;DHT22;22964;52.272;13.356;2023-12-20T06:45:12;9.90;78.90
37052;DHT22;22964;52.272;13.356;2023-12-20T06:47:38;9.90;78.90
37052;DHT22;22964;52.272;13.356;2023-12-20T06:50:04;9.80;79.00
37052;DHT22;22964;52.272;13.356;2023-12-20T06:52:30;9.80;79.00
37052;DHT22;22964;52.272;13.356;2023-12-20T06:54:55;9.80;79.10
37052;DHT22;22964;52.272;13.356;2023-12-20T06:57:21;9.70;79.40
37052;DHT22;22964;52.272;13.356;2023-12-20T06:59:47;9.70;79.20
37052;DHT22;22964;52.272;13.356;2023-12-20T07:02:13;9.70;79.30
37052;DHT22;22964;52.272;13.356;2023-12-20T07:04:41;9.70;79.30
37052;DHT22;22964;52.272;13.356;2023-12-20T07:07:07;9.60;79.40
37052;DHT22;22964;52.272;13.356;2023-12-20T07:09:33;9.60;79.40
37052;DHT22;22964;52.272;13.356;2023-12-20T07:11:59;9.60;79.40
37052;DHT22;22964;52.272;13.356;2023-12-20T07:14:25;9.60;79.40
37052;DHT22;22964;52.272;13.356;2023-12-20T07:16:51;9.60;80.30
37052;DHT22;22964;52.272;13.356;2023-12-20T07:19:17;9.50;79.50
37052;DHT22;22964;52.272;13.356;2023-12-20T07:21:43;9.50;79.60
37052;DHT22;22964;52.272;13.356;2023-12-20T07:24:08;9.50;79.50
37052;DHT22;22964;52.272;13.356;2023-12-20T07:26:35;9.50;79.70
37052;DHT22;22964;52.272;13.356;2023-12-20T07:29:01;9.50;79.70
37052;DHT22;22964;52.272;13.356;2023-12-20T07:31:26;9.50;79.70
37052;DHT22;22964;52.272;13.356;2023-12-20T07:33:52;9.50;79.90
37052;DHT22;22964;52.272;13.356;2023-12-20T07:36:19;9.50;80.00
37052;DHT22;22964;52.272;13.356;2023-12-20T07:38:45;9.50;80.10
37052;DHT22;22964;52.272;13.356;2023-12-20T07:41:11;9.50;80.10
37052;DHT22;22964;52.272;13.356;2023-12-20T07:43:36;9.50;80.10
37052;DHT22;22964;52.272;13.356;2023-12-20T07:46:06;9.50;80.20
37052;DHT22;22964;52.272;13.356;2023-12-20T07:48:33;9.50;80.20
37052;DHT22;22964;52.272;13.356;2023-12-20T07:50:59;9.50;80.20
37052;DHT22;22964;52.272;13.356;2023-12-20T07:53:25;9.50;80.20
37052;DHT22;22964;52.272;13.356;2023-12-20T07:55:51;9.50;80.30
37052;DHT22;22964;52.272;13.356;2023-12-20T07:58:18;9.50;80.20
37052;DHT22;22964;52.272;13.356;2023-12-20T08:00:43;9.50;80.20
37052;DHT22;22964;52.272;13.356;2023-12-20T08:03:09;9.50;80.20
37052;DHT22;22964;52.272;13.356;2023-12-20T08:05:35;9.50;80.20
37052;DHT22;22964;52.272;13.356;2023-12-20T08:08:01;9.60;80.20
37052;DHT22;22964;52.272;13.356;2023-12-20T08:10:27;9.60;80.20
37052;DHT22;22964;52.272;13.356;2023-12-20T08:12:55;9.60;80.20
37052;DHT22;22964;52.272;13.356;2023-12-20T08:15:21;9.70;80.20
37052;DHT22;22964;52.272;13.356;2023-12-20T08:17:46;9.60;80.10
37052;DHT22;22964;52.272;13.356;2023-12-20T08:20:12;9.60;80.00
37052;DHT22;22964;52.272;13.356;2023-12-20T08:22:38;9.70;80.00
37052;DHT22;22964;52.272;13.356;2023-12-20T08:25:04;9.70;79.90
37052;DHT22;22964;52.272;13.356;2023-12-20T08:27:30;9.70;79.90
37052;DHT22;22964;52.272;13.356;2023-12-20T08:29:57;9.70;79.90
37052;DHT22;22964;52.272;13.356;2023-12-20T08:32:25;9.70;79.90
37052;DHT22;22964;52.272;13.356;2023-12-20T08:34:52;9.70;79.80
37052;DHT22;22964;52.272;13.356;2023-12-20T08:37:18;9.70;79.70
37052;DHT22;22964;52.272;13.356;2023-12-20T08:39:43;9.70;79.70
37052;DHT22;22964;52.272;13.356;2023-12-20T08:42:09;9.70;79.70
37052;DHT22;22964;52.272;13.356;2023-12-20T08:44:35;9.70;79.70
37052;DHT22;22964;52.272;13.356;2023-12-20T08:47:01;9.70;79.70
37052;DHT22;22964;52.272;13.356;2023-12-20T08:49:27;9.80;79.70
37052;DHT22;22964;52.272;13.356;2023-12-20T08:51:53;9.80;79.70
37052;DHT22;22964;52.272;13.356;2023-12-20T08:54:19;9.80;79.70
37052;DHT22;22964;52.272;13.356;2023-12-20T08:56:45;9.80;79.70
37052;DHT22;22964;52.272;13.356;2023-12-20T08:59:11;9.80;79.70
37052;DHT22;22964;52.272;13.356;2023-12-20T09:01:38;9.80;79.60
37052;DHT22;22964;52.272;13.356;2023-12-20T09:04:03;9.80;79.60
37052;DHT22;22964;52.272;13.356;2023-12-20T09:06:29;9.90;79.50
37052;DHT22;22964;52.272;13.356;2023-12-20T09:08:55;9.90;79.50
37052;DHT22;22964;52.272;13.356;2023-12-20T09:11:21;9.90;79.50
37052;DHT22;22964;52.272;13.356;2023-12-20T09:13:46;9.90;79.50
37052;DHT22;22964;52.272;13.356;2023-12-20T09:16:12;9.90;79.60
37052;DHT22;22964;52.272;13.356;2023-12-20T09:18:39;10.00;79.70
37052;DHT22;22964;52.272;13.356;2023-12-20T09:21:04;10.00;79.60
37052;DHT22;22964;52.272;13.356;2023-12-20T09:23:31;10.00;79.60
37052;DHT22;22964;52.272;13.356;2023-12-20T09:25:56;10.00;79.50
37052;DHT22;22964;52.272;13.356;2023-12-20T09:28:22;10.00;80.20
37052;DHT22;22964;52.272;13.356;2023-12-20T09:30:48;10.10;79.30
37052;DHT22;22964;52.272;13.356;2023-12-20T09:33:14;10.10;79.20
37052;DHT22;22964;52.272;13.356;2023-12-20T09:35:40;10.10;79.10
37052;DHT22;22964;52.272;13.356;2023-12-20T09:38:05;10.20;79.10
37052;DHT22;22964;52.272;13.356;2023-12-20T09:40:32;10.20;78.90
37052;DHT22;22964;52.272;13.356;2023-12-20T09:43:04;10.20;78.70
37052;DHT22;22964;52.272;13.356;2023-12-20T09:45:33;10.30;78.60
37052;DHT22;22964;52.272;13.356;2023-12-20T09:48:00;10.30;78.60
37052;DHT22;22964;52.272;13.356;2023-12-20T09:50:27;10.30;78.40
37052;DHT22;22964;52.272;13.356;2023-12-20T09:52:53;10.30;78.30
37052;DHT22;22964;52.272;13.356;2023-12-20T09:55:21;10.30;78.10
37052;DHT22;22964;52.272;13.356;2023-12-20T09:57:47;10.40;78.10
37052;DHT22;22964;52.272;13.356;2023-12-20T10:00:14;10.40;78.00
37052;DHT22;22964;52.272;13.356;2023-12-20T10:02:56;10.40;77.90
37052;DHT22;22964;52.272;13.356;2023-12-20T10:05:32;10.40;77.70
37052;DHT22;22964;52.272;13.356;2023-12-20T10:07:58;10.40;77.70
37052;DHT22;22964;52.272;13.356;2023-12-20T10:10:24;10.50;77.60
37052;DHT22;22964;52.272;13.356;2023-12-20T10:13:06;10.50;77.60
37052;DHT22;22964;52.272;13.356;2023-12-20T10:15:33;10.50;77.50
37052;DHT22;22964;52.272;13.356;2023-12-20T10:18:00;10.50;77.70
37052;DHT22;22964;52.272;13.356;2023-12-20T10:20:25;10.50;77.60
37052;DHT22;22964;52.272;13.356;2023-12-20T10:22:52;10.60;77.60
37052;DHT22;22964;52.272;13.356;2023-12-20T10:25:20;10.60;77.30
37052;DHT22;22964;52.272;13.356;2023-12-20T10:27:46;10.60;77.20
37052;DHT22;22964;52.272;13.356;2023-12-20T10:30:16;10.60;77.10
37052;DHT22;22964;52.272;13.356;2023-12-20T10:32:42;10.70;77.20
37052;DHT22;22964;52.272;13.356;2023-12-20T10:35:08;10.70;77.10
37052;DHT22;22964;52.272;13.356;2023-12-20T10:37:37;10.70;76.90
37052;DHT22;22964;52.272;13.356;2023-12-20T10:40:04;10.70;76.50
37052;DHT22;22964;52.272;13.356;2023-12-20T10:42:32;10.70;76.80
37052;DHT22;22964;52.272;13.356;2023-12-20T10:44:59;10.80;76.80
37052;DHT22;22964;52.272;13.356;2023-12-20T10:47:25;10.80;76.60
37052;DHT22;22964;52.272;13.356;2023-12-20T10:49:54;10.80;76.40
37052;DHT22;22964;52.272;13.356;2023-12-20T10:52:23;10.80;76.00
37052;DHT22;22964;52.272;13.356;2023-12-20T10:54:50;10.90;75.90
37052;DHT22;22964;52.272;13.356;2023-12-20T10:57:18;10.90;75.90
37052;DHT22;22964;52.272;13.356;2023-12-20T10:59:45;10.90;75.60
37052;DHT22;22964;52.272;13.356;2023-12-20T11:02:14;11.00;75.30
37052;DHT22;22964;52.272;13.356;2023-12-20T11:04:53;11.00;75.60
37052;DHT22;22964;52.272;13.356;2023-12-20T11:07:30;11.00;75.40
37052;DHT22;22964;52.272;13.356;2023-12-20T11:10:10;11.00;75.10
37052;DHT22;22964;52.272;13.356;2023-12-20T11:12:54;11.10;74.60
37052;DHT22;22964;52.272;13.356;2023-12-20T11:15:22;11.10;74.60
37052;DHT22;22964;52.272;13.356;2023-12-20T11:17:56;11.10;74.20
37052;DHT22;22964;52.272;13.356;2023-12-20T11:20:24;11.10;73.90
37052;DHT22;22964;52.272;13.356;2023-12-20T11:23:00;11.10;74.20
37052;DHT22;22964;52.272;13.356;2023-12-20T11:25:26;11.10;74.50
37052;DHT22;22964;52.272;13.356;2023-12-20T11:28:22;11.10;73.60
37052;DHT22;22964;52.272;13.356;2023-12-20T11:30:52;11.10;73.20
37052;DHT22;22964;52.272;13.356;2023-12-20T11:33:38;11.10;73.90
37052;DHT22;22964;52.272;13.356;2023-12-20T11:36:13;11.10;73.40
37052;DHT22;22964;52.272;13.356;2023-12-20T11:38:58;11.10;73.60
37052;DHT22;22964;52.272;13.356;2023-12-20T11:41:26;11.10;73.50
37052;DHT22;22964;52.272;13.356;2023-12-20T11:43:55;11.10;73.10
37052;DHT22;22964;52.272;13.356;2023-12-20T11:46:22;11.10;72.80
37052;DHT22;22964;52.272;13.356;2023-12-20T11:48:48;11.10;73.00
37052;DHT22;22964;52.272;13.356;2023-12-20T11:51:14;11.10;73.20
37052;DHT22;22964;52.272;13.356;2023-12-20T11:53:40;11.10;73.20
37052;DHT22;22964;52.272;13.356;2023-12-20T11:56:08;11.10;73.10
37052;DHT22;22964;52.272;13.356;2023-12-20T11:58:34;11.10;73.10
37052;DHT22;22964;52.272;13.356;2023-12-20T12:01:01;11.10;73.30
37052;DHT22;22964;52.272;13.356;2023-12-20T12:03:28;11.10;73.40
37052;DHT22;22964;52.272;13.356;2023-12-20T12:05:53;11.10;73.40
37052;DHT22;22964;52.272;13.356;2023-12-20T12:08:19;11.10;73.50
37052;DHT22;22964;52.272;13.356;2023-12-20T12:10:45;11.00;73.70
37052;DHT22;22964;52.272;13.356;2023-12-20T12:13:11;11.00;73.70
37052;DHT22;22964;52.272;13.356;2023-12-20T12:15:37;11.00;73.70
37052;DHT22;22964;52.272;13.356;2023-12-20T12:18:03;11.10;74.10
37052;DHT22;22964;52.272;13.356;2023-12-20T12:20:29;11.00;73.70
37052;DHT22;22964;52.272;13.356;2023-12-20T12:23:13;11.00;73.70
37052;DHT22;22964;52.272;13.356;2023-12-20T12:25:39;11.00;73.30
37052;DHT22;22964;52.272;13.356;2023-12-20T12:28:05;11.00;73.60
37052;DHT22;22964;52.272;13.356;2023-12-20T12:30:31;11.00;74.00
37052;DHT22;22964;52.272;13.356;2023-12-20T12:32:57;11.00;74.10
37052;DHT22;22964;52.272;13.356;2023-12-20T12:35:23;11.00;74.00
37052;DHT22;22964;52.272;13.356;2023-12-20T12:37:49;11.00;74.30
37052;DHT22;22964;52.272;13.356;2023-12-20T12:40:17;11.00;75.20
37052;DHT22;22964;52.272;13.356;2023-12-20T12:42:44;10.90;74.30
37052;DHT22;22964;52.272;13.356;2023-12-20T12:45:10;11.00;74.50
37052;DHT22;22964;52.272;13.356;2023-12-20T12:47:39;11.00;74.40
37052;DHT22;22964;52.272;13.356;2023-12-20T12:50:05;11.00;74.40
37052;DHT22;22964;52.272;13.356;2023-12-20T12:52:31;11.00;74.50
37052;DHT22;22964;52.272;13.356;2023-12-20T12:54:57;11.00;74.10
37052;DHT22;22964;52.272;13.356;2023-12-20T12:57:23;11.00;73.90
37052;DHT22;22964;52.272;13.356;2023-12-20T12:59:49;11.00;73.80
37052;DHT22;22964;52.272;13.356;2023-12-20T13:02:16;11.00;74.80
37052;DHT22;22964;52.272;13.356;2023-12-20T13:04:42;11.00;73.90
37052;DHT22;22964;52.272;13.356;2023-12-20T13:07:09;11.00;73.90
37052;DHT22;22964;52.272;13.356;2023-12-20T13:09:37;11.00;74.00
37052;DHT22;22964;52.272;13.356;2023-12-20T13:12:03;11.10;74.30
37052;DHT22;22964;52.272;13.356;2023-12-20T13:14:31;11.10;74.10
37052;DHT22;22964;52.272;13.356;2023-12-20T13:16:58;11.00;74.50
37052;DHT22;22964;52.272;13.356;2023-12-20T13:19:24;11.00;74.50
37052;DHT22;22964;52.272;13.356;2023-12-20T13:21:50;11.00;74.40
37052;DHT22;22964;52.272;13.356;2023-12-20T13:24:15;11.00;74.40
37052;DHT22;22964;52.272;13.356;2023-12-20T13:26:41;11.00;74.30
37052;DHT22;22964;52.272;13.356;2023-12-20T13:29:07;10.90;74.40
37052;DHT22;22964;52.272;13.356;2023-12-20T13:31:33;10.90;74.70
37052;DHT22;22964;52.272;13.356;2023-12-20T13:33:58;10.90;74.60
37052;DHT22;22964;52.272;13.356;2023-12-20T13:36:24;10.90;74.70
37052;DHT22;22964;52.272;13.356;2023-12-20T13:38:50;10.90;74.80
37052;DHT22;22964;52.272;13.356;2023-12-20T13:41:16;10.90;74.80
37052;DHT22;22964;52.272;13.356;2023-12-20T13:43:41;10.90;74.90
37052;DHT22;22964;52.272;13.356;2023-12-20T13:46:08;10.90;75.00
37052;DHT22;22964;52.272;13.356;2023-12-20T13:48:34;10.90;75.20
37052;DHT22;22964;52.272;13.356;2023-12-20T13:51:00;10.80;75.30
37052;DHT22;22964;52.272;13.356;2023-12-20T13:53:28;10.80;75.40
37052;DHT22;22964;52.272;13.356;2023-12-20T13:55:54;10.80;76.40
37052;DHT22;22964;52.272;13.356;2023-12-20T13:58:19;10.80;75.60
37052;DHT22;22964;52.272;13.356;2023-12-20T14:00:45;10.80;75.10
37052;DHT22;22964;52.272;13.356;2023-12-20T14:03:11;10.70;74.30
37052;DHT22;22964;52.272;13.356;2023-12-20T14:05:37;10.60;73.60
37052;DHT22;22964;52.272;13.356;2023-12-20T14:08:03;10.50;73.10
37052;DHT22;22964;52.272;13.356;2023-12-20T14:10:29;10.50;73.10
37052;DHT22;22964;52.272;13.356;2023-12-20T14:12:55;10.30;73.20
37052;DHT22;22964;52.272;13.356;2023-12-20T14:15:21;10.20;73.40
37052;DHT22;22964;52.272;13.356;2023-12-20T14:17:47;10.20;73.60
37052;DHT22;22964;52.272;13.356;2023-12-20T14:20:12;10.10;73.80
37052;DHT22;22964;52.272;13.356;2023-12-20T14:22:38;10.00;74.00
37052;DHT22;22964;52.272;13.356;2023-12-20T14:25:11;10.00;74.20
37052;DHT22;22964;52.272;13.356;2023-12-20T14:27:38;9.90;74.50
37052;DHT22;22964;52.272;13.356;2023-12-20T14:30:04;9.90;75.00
37052;DHT22;22964;52.272;13.356;2023-12-20T14:32:31;9.90;75.20
37052;DHT22;22964;52.272;13.356;2023-12-20T14:34:57;9.80;75.50
37052;DHT22;22964;52.272;13.356;2023-12-20T14:37:23;9.80;75.90
37052;DHT22;22964;52.272;13.356;2023-12-20T14:39:49;9.80;76.00
37052;DHT22;22964;52.272;13.356;2023-12-20T14:42:15;9.80;76.40
37052;DHT22;22964;52.272;13.356;2023-12-20T14:44:41;9.70;76.60
37052;DHT22;22964;52.272;13.356;2023-12-20T14:47:07;9.70;77.20
37052;DHT22;22964;52.272;13.356;2023-12-20T14:49:33;9.80;78.20
37052;DHT22;22964;52.272;13.356;2023-12-20T14:51:59;9.70;77.50
37052;DHT22;22964;52.272;13.356;2023-12-20T14:54:26;9.70;77.50
37052;DHT22;22964;52.272;13.356;2023-12-20T14:56:51;9.60;77.50
37052;DHT22;22964;52.272;13.356;2023-12-20T14:59:17;9.70;77.70
37052;DHT22;22964;52.272;13.356;2023-12-20T15:01:46;9.60;77.70
37052;DHT22;22964;52.272;13.356;2023-12-20T15:04:11;9.70;77.70
37052;DHT22;22964;52.272;13.356;2023-12-20T15:06:39;9.70;77.80
37052;DHT22;22964;52.272;13.356;2023-12-20T15:09:04;9.60;77.80
37052;DHT22;22964;52.272;13.356;2023-12-20T15:11:31;9.70;78.00
37052;DHT22;22964;52.272;13.356;2023-12-20T15:13:57;9.70;78.00
37052;DHT22;22964;52.272;13.356;2023-12-20T15:16:24;9.60;78.00